Time;durP1;ratioP1;P1;durP2;ratioP2;P2;SDS_P1;SDS_P2;PMS_P1;PMS_P2;Temp;Humidity;BMP_temperature;BMP_pressure;BME280_temperature;BME280_humidity;BME280_pressure;Samples;Min_cycle;Max_cycle;Signal;HPM_P1;HPM_P2
2022/08/26 00:01:10;;;;;;;6.97;6.00;;;;;;;21.74;65.01;93280.88;4844798;29;20042;-90
2022/08/26 00:03:38;;;;;;;6.63;5.65;;;;;;;21.74;64.84;93280.16;4846042;29;20053;-91
2022/08/26 00:06:05;;;;;;;7.93;6.40;;;;;;;21.72;64.98;93283.44;4845318;29;20635;-91
2022/08/26 00:08:30;;;;;;;7.28;5.70;;;;;;;21.73;64.89;93279.41;4827765;29;20062;-92
2022/08/26 00:10:56;;;;;;;6.53;5.35;;;;;;;21.73;64.72;93284.19;4841244;29;20047;-92
2022/08/26 00:13:23;;;;;;;7.40;5.60;;;;;;;21.74;64.78;93280.16;4824594;29;20046;-91
2022/08/26 00:15:50;;;;;;;6.57;5.15;;;;;;;21.73;64.88;93273.91;4855353;29;20054;-94
2022/08/26 00:18:15;;;;;;;7.15;5.85;;;;;;;21.72;64.95;93275.19;4826370;29;20050;-94
2022/08/26 00:20:41;;;;;;;7.30;5.60;;;;;;;21.73;65.01;93276.66;4842080;29;20049;-91
2022/08/26 00:23:06;;;;;;;7.05;5.63;;;;;;;21.73;64.91;93271.16;4838937;29;20042;-90
2022/08/26 00:25:33;;;;;;;7.38;5.55;;;;;;;21.73;64.85;93270.41;4824389;29;20381;-91
2022/08/26 00:27:59;;;;;;;6.43;5.07;;;;;;;21.73;64.85;93264.91;4853879;29;20109;-92
2022/08/26 00:30:26;;;;;;;6.45;5.07;;;;;;;21.72;64.95;93271.69;4859850;29;20042;-90
2022/08/26 00:32:51;;;;;;;6.28;5.38;;;;;;;21.73;64.64;93268.41;4877524;29;20034;-94
2022/08/26 00:35:17;;;;;;;8.32;5.75;;;;;;;21.72;64.58;93272.44;4860625;29;20057;-92
2022/08/26 00:37:42;;;;;;;5.25;4.63;;;;;;;21.74;64.85;93274.66;4843478;29;20034;-91
2022/08/26 00:40:11;;;;;;;6.13;5.22;;;;;;;21.72;64.72;93277.94;4841711;29;20122;-91
2022/08/26 00:42:36;;;;;;;6.18;4.88;;;;;;;21.74;64.79;93282.91;4859753;29;20041;-91
2022/08/26 00:45:02;;;;;;;6.45;5.00;;;;;;;21.72;64.57;93280.69;4817097;29;20450;-93
2022/08/26 00:47:28;;;;;;;5.70;4.65;;;;;;;21.73;64.85;93279.41;4827823;29;20049;-91
2022/08/26 00:49:53;;;;;;;5.80;4.90;;;;;;;21.72;64.70;93271.69;4862655;29;20052;-90
2022/08/26 00:52:19;;;;;;;6.07;5.22;;;;;;;21.71;65.06;93284.72;4859842;29;20037;-92
2022/08/26 00:54:58;;;;;;;6.40;4.78;;;;;;;21.70;64.75;93280.47;4845999;29;20052;-92
2022/08/26 00:57:24;;;;;;;6.25;4.95;;;;;;;21.72;64.85;93285.44;4860110;29;20053;-90
2022/08/26 00:59:53;;;;;;;6.30;5.00;;;;;;;21.74;64.73;93277.41;4845925;29;20037;-90
2022/08/26 01:02:19;;;;;;;5.30;4.80;;;;;;;21.73;64.66;93278.66;4844020;29;20097;-93
2022/08/26 01:04:44;;;;;;;6.13;5.10;;;;;;;21.72;64.70;93279.94;4845188;29;20324;-90
2022/08/26 01:07:10;;;;;;;7.13;4.80;;;;;;;21.71;64.65;93279.22;4860084;29;20391;-90
2022/08/26 01:09:38;;;;;;;5.68;4.47;;;;;;;21.70;64.66;93271.47;4845864;29;20045;-93
2022/08/26 01:12:04;;;;;;;6.07;5.10;;;;;;;21.72;64.47;93280.69;4844620;29;20422;-91
2022/08/26 01:14:33;;;;;;;5.50;4.72;;;;;;;21.71;64.58;93270.22;4846461;29;20121;-93
2022/08/26 01:16:59;;;;;;;6.50;4.75;;;;;;;21.72;64.62;93277.94;4848184;29;20440;-91
2022/08/26 01:19:28;;;;;;;5.47;4.60;;;;;;;21.70;64.40;93266.72;4848052;29;20064;-91
2022/08/26 01:21:59;;;;;;;5.93;4.80;;;;;;;21.71;64.60;93262.69;4844265;29;20045;-93
2022/08/26 01:24:26;;;;;;;6.35;4.97;;;;;;;21.70;64.58;93269.47;4843055;29;20041;-90
2022/08/26 01:26:52;;;;;;;6.53;4.50;;;;;;;21.70;64.55;93269.47;4830672;29;20040;-91
2022/08/26 01:29:17;;;;;;;5.75;4.55;;;;;;;21.71;64.51;93267.47;4828640;29;20045;-90
2022/08/26 01:31:54;;;;;;;7.03;4.63;;;;;;;21.69;64.48;93261.75;4828047;29;20046;-91
2022/08/26 01:34:21;;;;;;;4.95;4.22;;;;;;;21.72;64.47;93266.19;4844587;29;20045;-92
2022/08/26 01:36:48;;;;;;;5.43;4.60;;;;;;;21.71;64.40;93261.97;4859439;29;20038;-94
2022/08/26 01:39:13;;;;;;;5.18;4.53;;;;;;;21.70;64.92;93260.47;4812718;29;20057;-91
2022/08/26 01:41:39;;;;;;;5.75;4.93;;;;;;;21.70;64.46;93261.22;4840816;29;20053;-90
2022/08/26 01:44:06;;;;;;;6.68;4.50;;;;;;;21.71;64.45;93261.97;4825424;29;20042;-93
2022/08/26 01:46:31;;;;;;;5.25;4.68;;;;;;;21.69;64.78;93259.00;4819308;29;20046;-90
2022/08/26 01:48:58;;;;;;;4.75;4.28;;;;;;;21.69;64.57;93265.25;4832662;29;20101;-94
2022/08/26 01:51:24;;;;;;;5.30;4.40;;;;;;;21.72;64.47;93257.94;4825178;29;20137;-94
2022/08/26 01:53:49;;;;;;;5.65;4.30;;;;;;;21.69;64.52;93248.75;4825822;29;20457;-91
2022/08/26 01:56:24;;;;;;;5.72;4.20;;;;;;;21.68;64.41;93255.50;4825444;29;20066;-92
2022/08/26 01:58:51;;;;;;;5.55;4.30;;;;;;;21.71;64.43;93245.44;4823418;29;20493;-91
2022/08/26 02:01:17;;;;;;;4.88;4.38;;;;;;;21.70;64.39;93243.97;4858509;29;20037;-91
2022/08/26 02:03:51;;;;;;;5.25;4.40;;;;;;;21.69;64.35;93253.50;4859903;29;20037;-91
2022/08/26 02:06:18;;;;;;;5.25;4.55;;;;;;;21.68;64.55;93247.25;4858281;29;20053;-92
2022/08/26 02:08:45;;;;;;;4.97;4.22;;;;;;;21.68;64.27;93252.75;4839835;29;20041;-92
2022/08/26 02:11:11;;;;;;;5.63;4.55;;;;;;;21.70;64.38;93252.22;4839641;29;20046;-93
2022/08/26 02:13:38;;;;;;;6.15;4.05;;;;;;;21.68;64.40;93247.25;4856125;29;20458;-91
2022/08/26 02:16:04;;;;;;;4.43;3.95;;;;;;;21.69;64.48;93245.25;4831179;29;20048;-92
2022/08/26 02:18:29;;;;;;;5.47;4.30;;;;;;;21.71;64.32;93251.69;4854179;29;20034;-90
2022/08/26 02:20:56;;;;;;;4.90;4.32;;;;;;;21.70;64.33;93252.97;4831624;29;20052;-92
2022/08/26 02:23:21;;;;;;;4.38;3.83;;;;;;;21.69;64.30;93246.00;4835681;29;20050;-93
2022/08/26 02:25:59;;;;;;;5.30;4.57;;;;;;;21.68;64.42;93252.75;4858108;29;20417;-92
2022/08/26 02:28:25;;;;;;;5.55;4.53;;;;;;;21.67;64.33;93245.78;4857299;29;20328;-91
2022/08/26 02:30:51;;;;;;;5.35;4.05;;;;;;;21.68;64.28;93246.53;4842636;29;20045;-94
2022/08/26 02:33:16;;;;;;;4.95;4.45;;;;;;;21.67;64.17;93229.28;4838951;29;20042;-93
2022/08/26 02:35:42;;;;;;;5.18;4.20;;;;;;;21.69;64.23;93242.50;4837274;29;20049;-91
2022/08/26 02:38:07;;;;;;;4.53;4.00;;;;;;;21.68;64.53;93239.00;4843054;29;20033;-92
2022/08/26 02:40:35;;;;;;;5.15;4.38;;;;;;;21.67;64.28;93237.53;4843317;29;20136;-91
2022/08/26 02:43:01;;;;;;;4.20;3.58;;;;;;;21.68;64.33;93233.50;4860530;29;20057;-92
2022/08/26 02:45:27;;;;;;;4.75;4.25;;;;;;;21.68;64.36;93239.00;4830889;29;20687;-91
2022/08/26 02:47:53;;;;;;;5.47;4.25;;;;;;;21.67;64.11;93240.28;4828808;29;20492;-91
2022/08/26 02:50:18;;;;;;;5.20;3.72;;;;;;;21.65;64.25;93242.81;4824255;29;20041;-91
2022/08/26 02:52:47;;;;;;;5.18;4.10;;;;;;;21.68;64.30;93238.25;4854761;29;20062;-92
2022/08/26 02:55:12;;;;;;;5.07;4.20;;;;;;;21.67;64.32;93232.03;4823623;29;20037;-92
2022/08/26 02:57:38;;;;;;;5.10;4.32;;;;;;;21.67;64.23;93234.78;4825284;29;20046;-93
2022/08/26 03:00:04;;;;;;;4.72;3.78;;;;;;;21.67;64.03;93226.53;4836192;29;20041;-90
2022/08/26 03:02:30;;;;;;;4.55;3.90;;;;;;;21.66;64.14;93233.31;4840763;29;20062;-91
2022/08/26 03:04:55;;;;;;;6.03;3.80;;;;;;;21.67;64.18;93237.53;4841545;29;20054;-91
2022/08/26 03:07:21;;;;;;;5.18;4.05;;;;;;;21.67;64.19;93239.53;4858536;29;20042;-91
2022/08/26 03:09:46;;;;;;;4.15;3.50;;;;;;;21.67;64.16;93228.53;4842105;29;20385;-90
2022/08/26 03:12:14;;;;;;;4.95;3.65;;;;;;;21.65;63.92;93236.63;4839964;29;20050;-93
2022/08/26 03:14:40;;;;;;;4.72;3.80;;;;;;;21.66;64.24;93230.53;4812787;29;20062;-90
2022/08/26 03:17:05;;;;;;;4.15;3.30;;;;;;;21.68;64.16;93230.75;4811635;29;20507;-92
2022/08/26 03:19:31;;;;;;;5.32;4.10;;;;;;;21.66;64.26;93221.56;4812961;29;20049;-91
2022/08/26 03:21:56;;;;;;;6.05;3.60;;;;;;;21.67;64.24;93229.28;4827285;29;20037;-91
2022/08/26 03:24:22;;;;;;;4.13;3.60;;;;;;;21.65;64.02;93229.06;4841381;29;20188;-91
2022/08/26 03:26:47;;;;;;;4.28;3.80;;;;;;;21.65;64.19;93225.59;4827420;29;20041;-90
2022/08/26 03:31:57;;;;;;;4.40;3.42;;;;;;;21.67;64.22;93223.03;4831641;29;20049;-92
2022/08/26 03:34:22;;;;;;;4.88;3.60;;;;;;;21.66;64.11;93224.31;4811864;29;20412;-91
2022/08/26 03:36:48;;;;;;;3.95;3.35;;;;;;;21.66;64.24;93218.81;4827078;29;20125;-90
2022/08/26 03:39:13;;;;;;;4.80;3.75;;;;;;;21.67;63.95;93223.78;4811085;29;20038;-91
2022/08/26 03:41:39;;;;;;;4.20;3.80;;;;;;;21.65;64.23;93220.81;4850118;29;20176;-94
2022/08/26 03:44:05;;;;;;;4.63;3.67;;;;;;;21.65;64.44;93228.34;4859508;29;20048;-91
2022/08/26 03:46:34;;;;;;;3.35;2.90;;;;;;;21.66;64.13;93224.31;4828815;29;20071;-91
2022/08/26 03:49:00;;;;;;;3.95;3.50;;;;;;;21.65;64.18;93222.84;4828797;29;20049;-91
2022/08/26 03:51:26;;;;;;;4.10;3.42;;;;;;;21.65;64.05;93223.56;4859156;29;20038;-91
2022/08/26 03:53:51;;;;;;;4.35;3.95;;;;;;;21.65;64.05;93225.59;4843875;29;20034;-92
2022/08/26 03:56:17;;;;;;;4.05;3.17;;;;;;;21.66;64.11;93221.56;4844422;29;20098;-91
2022/08/26 03:58:43;;;;;;;4.22;3.60;;;;;;;21.65;63.56;93233.84;4844498;29;20044;-93
2022/08/26 04:01:10;;;;;;;3.90;3.25;;;;;;;21.64;64.20;93226.88;4847177;29;20064;-92
2022/08/26 04:03:56;;;;;;;5.10;3.40;;;;;;;21.65;64.18;93231.81;4852155;29;20038;-91
2022/08/26 04:06:37;;;;;;;3.70;3.15;;;;;;;21.65;64.08;93223.56;4838485;29;20255;-90
2022/08/26 04:09:05;;;;;;;5.20;3.65;;;;;;;21.66;63.84;93227.06;4856965;29;20058;-90
2022/08/26 04:11:32;;;;;;;3.65;3.33;;;;;;;21.65;63.92;93231.81;4843753;29;20045;-89
2022/08/26 04:14:00;;;;;;;3.72;3.05;;;;;;;21.65;64.01;93231.09;4825036;29;20050;-91
2022/08/26 04:16:25;;;;;;;4.72;3.47;;;;;;;21.65;63.85;93229.06;4859141;29;20041;-91
2022/08/26 04:18:51;;;;;;;6.32;3.90;;;;;;;21.64;64.08;93222.13;4813826;29;20044;-90
2022/08/26 04:21:16;;;;;;;3.63;3.28;;;;;;;21.65;63.94;93226.31;4813572;29;20045;-92
2022/08/26 04:23:42;;;;;;;4.53;3.50;;;;;;;21.64;64.04;93235.13;4844800;29;20041;-91
2022/08/26 04:26:07;;;;;;;3.67;3.30;;;;;;;21.65;63.86;93218.06;4829014;29;20045;-93
2022/08/26 04:28:32;;;;;;;4.45;3.25;;;;;;;21.64;63.96;93224.88;4828684;29;20045;-91
2022/08/26 04:30:58;;;;;;;4.18;3.28;;;;;;;21.69;63.78;93234.25;4829044;29;20105;-91
2022/08/26 04:33:23;;;;;;;3.42;3.00;;;;;;;21.65;63.71;93231.81;4813102;29;20045;-91
2022/08/26 04:35:49;;;;;;;3.35;3.05;;;;;;;21.66;63.70;93230.53;4818577;29;20197;-93
2022/08/26 04:38:15;;;;;;;2.60;2.40;;;;;;;21.66;63.80;93224.31;4842904;29;20052;-92
2022/08/26 04:40:44;;;;;;;3.10;2.75;;;;;;;21.65;63.89;93229.06;4856292;29;20045;-92
2022/08/26 04:43:12;;;;;;;3.75;2.80;;;;;;;21.68;63.82;93235.50;4823976;29;20133;-90
2022/08/26 04:45:37;;;;;;;3.85;3.15;;;;;;;21.66;63.58;93229.81;4840694;29;20049;-91
2022/08/26 04:48:03;;;;;;;3.58;2.90;;;;;;;21.68;63.85;93228.00;4836911;29;20088;-94
2022/08/26 04:50:28;;;;;;;3.38;2.50;;;;;;;21.70;63.61;93225.44;4837361;29;20749;-90
2022/08/26 04:52:54;;;;;;;3.70;2.90;;;;;;;21.72;63.76;93233.16;4831175;29;20414;-91
2022/08/26 04:55:19;;;;;;;5.15;2.85;;;;;;;21.71;63.69;93232.44;4844289;29;20041;-91
2022/08/26 04:57:45;;;;;;;5.13;2.42;;;;;;;21.74;63.50;93233.38;4824910;29;20053;-90
2022/08/26 05:00:12;;;;;;;12.93;2.70;;;;;;;21.70;63.71;93225.44;4866148;23;20149;-94
2022/08/26 05:02:37;;;;;;;5.93;4.55;;;;;;;21.68;63.79;93235.50;4840969;29;20052;-88
2022/08/26 05:05:05;;;;;;;6.68;5.10;;;;;;;21.64;63.81;93229.63;4854215;29;20033;-88
2022/08/26 05:07:33;;;;;;;11.07;7.05;;;;;;;21.60;63.80;93238.22;4849134;29;20049;-88
2022/08/26 05:09:59;;;;;;;8.50;6.55;;;;;;;21.61;63.83;93239.69;4853514;29;20060;-89
2022/08/26 05:12:24;;;;;;;11.32;7.35;;;;;;;21.59;64.17;93238.75;4830080;29;20712;-88
2022/08/26 05:14:50;;;;;;;10.50;7.70;;;;;;;21.57;64.10;93242.03;4833660;29;20063;-88
2022/08/26 05:17:15;;;;;;;10.02;7.60;;;;;;;21.56;64.12;93240.56;4834881;29;20041;-88
2022/08/26 05:19:41;;;;;;;10.95;8.45;;;;;;;21.60;64.24;93240.22;4836496;29;20041;-88
2022/08/26 05:22:06;;;;;;;9.55;7.60;;;;;;;21.60;63.92;93240.22;4834880;29;20041;-89
2022/08/26 05:24:35;;;;;;;14.02;8.27;;;;;;;21.57;63.99;93247.53;4840507;29;20042;-88
2022/08/26 05:27:01;;;;;;;14.25;7.40;;;;;;;21.62;63.96;93240.44;4843024;29;20062;-88
2022/08/26 05:29:28;;;;;;;13.23;8.20;;;;;;;21.61;63.88;93231.44;4827941;29;20730;-89
2022/08/26 05:31:54;;;;;;;9.85;7.43;;;;;;;21.60;64.08;93245.72;4815387;29;20054;-88
2022/08/26 05:34:21;;;;;;;8.10;7.10;;;;;;;21.62;63.87;93243.19;4830193;29;20062;-88
2022/08/26 05:36:47;;;;;;;8.10;7.10;;;;;;;21.62;63.78;93240.44;4842472;29;20125;-88
2022/08/26 05:39:12;;;;;;;10.20;6.40;;;;;;;21.64;63.80;93240.63;4847049;29;20065;-89
2022/08/26 05:41:40;;;;;;;8.50;5.88;;;;;;;21.66;63.81;93240.81;4831301;29;20056;-88
2022/08/26 05:44:13;;;;;;;6.88;5.55;;;;;;;21.62;64.06;93237.69;4835653;29;20501;-88
2022/08/26 05:46:39;;;;;;;7.07;6.10;;;;;;;21.66;63.78;93238.81;4835978;29;20053;-88
2022/08/26 05:49:14;;;;;;;7.63;6.13;;;;;;;21.64;63.86;93244.13;4834969;29;20038;-88
2022/08/26 05:51:43;;;;;;;6.97;5.25;;;;;;;21.67;63.55;93243.03;4831839;29;20052;-88
2022/08/26 05:54:09;;;;;;;5.65;4.35;;;;;;;21.65;63.53;93236.63;4847018;29;20045;-88
2022/08/26 05:56:35;;;;;;;5.57;4.70;;;;;;;21.67;63.65;93251.28;4832257;29;20125;-88
2022/08/26 05:59:01;;;;;;;6.63;5.20;;;;;;;21.70;63.58;93241.22;4816879;29;20049;-88
2022/08/26 06:01:27;;;;;;;5.75;5.07;;;;;;;21.66;63.58;93246.31;4831667;29;20077;-89
2022/08/26 06:03:55;;;;;;;7.00;4.32;;;;;;;21.67;63.23;93239.53;4850144;29;20033;-87
2022/08/26 06:06:25;;;;;;;5.18;4.47;;;;;;;21.66;63.51;93244.31;4832627;29;20061;-88
2022/08/26 06:08:50;;;;;;;5.97;4.80;;;;;;;21.68;63.67;93243.78;4833610;29;20466;-88
2022/08/26 06:11:18;;;;;;;5.32;4.22;;;;;;;21.66;63.66;93246.31;4817624;29;20051;-89
2022/08/26 06:13:44;;;;;;;5.40;4.65;;;;;;;21.70;63.63;93243.97;4819353;29;20034;-90
2022/08/26 06:16:16;;;;;;;5.35;4.28;;;;;;;21.69;63.40;93262.50;4821740;29;20078;-89
2022/08/26 06:18:45;;;;;;;6.90;4.63;;;;;;;21.69;63.57;93256.25;4849025;29;20080;-90
2022/08/26 06:21:24;;;;;;;6.10;4.18;;;;;;;21.70;63.48;93252.22;4848567;29;20049;-88
2022/08/26 06:26:38;;;;;;;4.15;3.60;;;;;;;21.69;63.46;93256.25;4847972;29;20075;-90
2022/08/26 06:29:05;;;;;;;7.03;4.10;;;;;;;21.66;63.70;93249.81;4846434;29;20045;-90
2022/08/26 06:31:32;;;;;;;4.30;3.70;;;;;;;21.71;63.32;93254.44;4845519;29;20121;-89
2022/08/26 06:33:58;;;;;;;3.97;3.50;;;;;;;21.71;63.58;93256.47;4815886;29;20085;-89
2022/08/26 06:36:25;;;;;;;6.40;4.22;;;;;;;21.73;64.27;93251.91;4821599;29;20054;-89
2022/08/26 06:38:51;;;;;;;6.30;4.35;;;;;;;21.72;63.45;93252.44;4814426;29;20098;-87
2022/08/26 06:41:19;;;;;;;6.22;4.15;;;;;;;21.73;63.49;93254.66;4814998;29;20046;-87
2022/08/26 06:43:53;;;;;;;4.07;3.63;;;;;;;21.71;63.48;93257.19;4863994;29;20046;-86
2022/08/26 06:46:20;;;;;;;4.93;3.72;;;;;;;21.72;63.50;93246.94;4845337;29;20038;-87
2022/08/26 06:48:46;;;;;;;8.52;4.10;;;;;;;21.74;63.36;93249.88;4829355;29;20038;-88
2022/08/26 06:51:15;;;;;;;6.45;4.32;;;;;;;21.75;63.54;93249.34;4830082;29;20562;-87
2022/08/26 06:53:44;;;;;;;5.57;4.10;;;;;;;21.74;63.21;93252.63;4831412;29;20144;-88
2022/08/26 06:56:10;;;;;;;18.80;5.68;;;;;;;21.74;63.54;93249.88;4844734;29;20050;-87
2022/08/26 06:58:36;;;;;;;13.43;4.90;;;;;;;21.75;63.19;93254.84;4836234;29;20050;-88
2022/08/26 07:01:04;;;;;;;12.60;5.53;;;;;;;21.75;63.46;93254.13;4821633;29;20186;-87
2022/08/26 07:03:31;;;;;;;18.70;5.22;;;;;;;21.78;63.03;93264.06;4829421;29;20039;-88
2022/08/26 07:06:01;;;;;;;26.30;7.38;;;;;;;21.77;63.38;93254.31;4813093;29;20495;-90
2022/08/26 07:08:26;;;;;;;11.20;4.33;;;;;;;21.77;63.41;93260.56;4827849;29;20099;-90
2022/08/26 07:10:53;;;;;;;10.73;5.18;;;;;;;21.75;63.42;93259.63;4822928;29;20038;-90
2022/08/26 07:13:21;;;;;;;19.60;6.13;;;;;;;21.76;63.26;93259.09;4845404;29;20042;-86
2022/08/26 07:15:47;;;;;;;16.80;5.90;;;;;;;21.79;63.15;93258.00;4854203;29;20042;-90
2022/08/26 07:18:13;;;;;;;17.80;5.60;;;;;;;21.79;63.11;93265.53;4818918;29;20098;-93
2022/08/26 07:20:41;;;;;;;16.02;7.95;;;;;;;21.78;63.19;93256.53;4828180;29;20049;-87
2022/08/26 07:23:07;;;;;;;19.83;10.02;;;;;;;21.78;64.40;93253.03;4840217;29;20053;-88
2022/08/26 07:25:36;;;;;;;27.35;11.55;;;;;;;21.77;64.05;93255.06;4813690;29;20058;-88
2022/08/26 07:28:03;;;;;;;21.57;12.87;;;;;;;21.76;64.89;93255.59;4824727;29;20506;-89
2022/08/26 07:30:28;;;;;;;25.77;13.88;;;;;;;21.74;65.56;93255.38;4823815;29;20286;-87
2022/08/26 07:32:56;;;;;;;41.58;20.85;;;;;;;21.73;65.01;93249.16;4833363;29;20038;-88
2022/08/26 07:35:21;;;;;;;30.35;15.88;;;;;;;21.72;65.84;93252.44;4828075;29;20070;-87
2022/08/26 07:37:47;;;;;;;25.75;15.25;;;;;;;21.73;65.66;93262.91;4822567;29;20261;-88
2022/08/26 07:40:12;;;;;;;25.90;16.05;;;;;;;21.72;65.80;93264.19;4795060;29;20129;-88
2022/08/26 07:42:39;;;;;;;32.53;18.17;;;;;;;21.76;65.46;93261.09;4814291;29;20400;-88
2022/08/26 07:45:05;;;;;;;31.95;17.15;;;;;;;21.77;65.51;93260.56;4808757;29;20133;-88
2022/08/26 07:47:31;;;;;;;31.00;19.05;;;;;;;21.78;65.29;93247.53;4817359;29;20061;-88
2022/08/26 07:49:57;;;;;;;27.27;16.35;;;;;;;21.80;65.06;93256.75;4822485;29;20038;-89
2022/08/26 07:52:32;;;;;;;36.75;19.30;;;;;;;21.78;64.98;93251.03;4861375;29;20101;-87
2022/08/26 07:55:03;;;;;;;33.80;19.20;;;;;;;21.80;64.94;93250.50;4802088;29;20077;-87
2022/08/26 07:57:34;;;;;;;35.85;19.10;;;;;;;21.79;65.16;93244.25;4831035;29;20569;-87
2022/08/26 08:00:00;;;;;;;32.30;17.00;;;;;;;21.80;64.59;93251.25;4815650;29;20504;-89
2022/08/26 08:02:26;;;;;;;43.63;21.25;;;;;;;21.81;64.37;93255.47;4825320;29;20050;-86
2022/08/26 08:04:53;;;;;;;43.65;19.73;;;;;;;21.83;64.43;93265.94;4804173;29;20057;-87
2022/08/26 08:07:19;;;;;;;37.58;19.88;;;;;;;21.84;64.48;93256.41;4780208;29;20050;-87
2022/08/26 08:09:48;;;;;;;49.35;21.73;;;;;;;21.85;64.52;93261.38;4795665;29;20137;-87
2022/08/26 08:12:13;;;;;;;51.53;21.40;;;;;;;21.85;64.54;93260.63;4807678;29;20046;-88
2022/08/26 08:14:39;;;;;;;65.78;24.70;;;;;;;21.88;64.23;93254.03;4800110;29;20093;-87
2022/08/26 08:17:05;;;;;;;47.40;21.02;;;;;;;21.88;64.35;93257.53;4795043;29;20079;-87
2022/08/26 08:19:31;;;;;;;55.63;20.45;;;;;;;21.90;64.27;93257.72;4814648;29;20076;-87
2022/08/26 08:21:56;;;;;;;45.25;20.58;;;;;;;21.92;64.33;93256.47;4816611;29;20050;-87
2022/08/26 08:24:22;;;;;;;38.65;20.08;;;;;;;21.91;64.33;93258.47;4809771;29;20050;-88
2022/08/26 08:26:49;;;;;;;38.55;20.30;;;;;;;21.89;64.33;93258.25;4804463;29;20143;-87
2022/08/26 08:29:14;;;;;;;87.25;57.15;;;;;;;21.91;64.32;93250.22;4806614;29;20050;-91
2022/08/26 08:31:40;;;;;;;31.30;18.40;;;;;;;21.92;64.08;93250.94;4804525;29;20046;-90
2022/08/26 08:34:05;;;;;;;32.00;18.15;;;;;;;21.92;64.23;93264.72;4802985;29;20123;-92
2022/08/26 08:36:31;;;;;;;32.80;18.02;;;;;;;21.95;64.21;93247.88;4830520;29;20102;-93
2022/08/26 08:38:56;;;;;;;34.50;17.88;;;;;;;21.97;63.93;93253.56;4820230;29;20050;-87
2022/08/26 08:41:43;;;;;;;30.52;16.70;;;;;;;21.96;64.12;93252.09;4809174;29;20123;-86
2022/08/26 08:44:14;;;;;;;23.98;16.17;;;;;;;21.95;64.19;93255.38;4822020;29;20034;-91
2022/08/26 08:46:40;;;;;;;;;;;;;;;21.93;64.35;93258.66;4821461;29;20050;-86
2022/08/26 08:49:05;;;;;;;27.30;16.33;;;;;;;21.93;64.32;93252.44;4810609;29;19929;-87
2022/08/26 08:51:38;;;;;;;26.00;15.98;;;;;;;21.92;64.15;93257.19;4818099;29;20671;-89
2022/08/26 08:54:04;;;;;;;37.38;17.80;;;;;;;21.95;64.11;93252.63;4801716;29;20046;-89
2022/08/26 08:56:32;;;;;;;29.92;18.33;;;;;;;21.98;64.01;93252.31;4803558;29;20047;-92
2022/08/26 08:58:58;;;;;;;34.42;18.67;;;;;;;22.00;63.93;93254.50;4809913;29;20042;-87
2022/08/26 09:01:25;;;;;;;35.72;17.88;;;;;;;21.98;64.11;93246.06;4821921;29;20050;-91
2022/08/26 09:04:09;;;;;;;34.95;18.73;;;;;;;21.99;64.05;93242.03;4790257;29;20038;-86
2022/08/26 09:06:34;;;;;;;40.17;20.33;;;;;;;22.01;64.09;93248.50;4842887;29;20069;-87
2022/08/26 09:09:00;;;;;;;40.28;18.23;;;;;;;21.99;64.06;93236.53;4822158;29;20038;-90
2022/08/26 09:11:25;;;;;;;36.53;18.58;;;;;;;22.02;63.91;93240.97;4827049;29;20037;-88
2022/08/26 09:13:54;;;;;;;46.95;19.65;;;;;;;22.01;64.18;93248.50;4811332;29;20450;-92
2022/08/26 09:16:37;;;;;;;35.63;17.08;;;;;;;22.02;64.35;93249.97;4830705;29;20063;-93
2022/08/26 09:19:10;;;;;;;35.75;20.77;;;;;;;22.03;64.06;93251.47;4826858;29;20046;-90
2022/08/26 09:21:36;;;;;;;38.35;21.23;;;;;;;22.04;64.06;93243.94;4821398;29;20093;-89
2022/08/26 09:24:04;;;;;;;42.22;23.23;;;;;;;22.04;64.12;93241.19;4824369;29;20082;-88
2022/08/26 09:26:39;;;;;;;42.88;23.35;;;;;;;22.04;63.81;93243.94;4826643;29;20414;-90
2022/08/26 09:29:10;;;;;;;67.30;33.00;;;;;;;22.05;63.83;93243.41;4833488;29;20050;-90
2022/08/26 09:31:35;;;;;;;;;;;;;;;22.03;64.21;93245.22;4828417;29;20061;-87
2022/08/26 09:34:06;;;;;;;67.38;33.70;;;;;;;22.06;63.86;93244.13;4826270;29;19921;-87
2022/08/26 09:36:37;;;;;;;85.22;44.63;;;;;;;22.05;64.22;93243.41;4842471;29;20512;-88
2022/08/26 09:39:14;;;;;;;82.95;44.80;;;;;;;22.06;64.18;93250.38;4850321;29;20050;-90
2022/08/26 09:41:42;;;;;;;102.20;53.22;;;;;;;22.09;63.83;93245.78;4849026;29;20034;-88
2022/08/26 09:44:09;;;;;;;80.57;44.42;;;;;;;22.08;63.77;93245.09;4854179;29;20077;-88
2022/08/26 09:46:38;;;;;;;89.28;49.70;;;;;;;22.10;64.08;93239.75;4859496;29;20034;-87
2022/08/26 09:49:33;;;;;;;99.25;45.47;;;;;;;22.07;64.00;93238.09;4879586;29;20494;-88
2022/08/26 09:52:20;;;;;;;87.63;45.30;;;;;;;22.07;63.99;93235.34;4847266;29;20545;-88
2022/08/26 09:54:59;;;;;;;73.78;43.50;;;;;;;22.10;63.92;93239.00;4820751;29;20614;-88
2022/08/26 09:57:28;;;;;;;70.95;40.13;;;;;;;22.10;63.96;93239.75;4830661;29;20042;-87
2022/08/26 09:59:53;;;;;;;110.95;64.75;;;;;;;22.10;64.05;93237.00;4831764;29;20057;-87
2022/08/26 10:02:32;;;;;;;117.70;84.82;;;;;;;22.14;64.35;93231.16;4836123;29;20040;-88
2022/08/26 10:05:00;;;;;;;76.20;52.28;;;;;;;22.13;63.89;93229.69;4868935;29;20104;-89
2022/08/26 10:07:47;;;;;;;83.00;48.47;;;;;;;22.13;64.02;93232.44;4831839;29;20053;-89
2022/08/26 10:10:18;;;;;;;84.47;45.80;;;;;;;22.13;63.90;93226.94;4827804;29;20057;-89
2022/08/26 10:13:06;;;;;;;75.43;45.80;;;;;;;22.14;63.92;93217.38;4848522;29;20072;-91
2022/08/26 10:15:41;;;;;;;78.43;47.50;;;;;;;22.14;63.93;93225.66;4838906;29;20045;-88
2022/08/26 10:18:14;;;;;;;76.47;43.38;;;;;;;22.17;63.83;93217.06;4826138;29;20046;-88
2022/08/26 10:20:50;;;;;;;70.40;40.38;;;;;;;22.17;63.92;93217.06;4841228;29;20048;-87
2022/08/26 10:23:17;;;;;;;63.97;40.83;;;;;;;22.17;64.15;93225.31;4815704;29;20498;-87
2022/08/26 10:25:45;;;;;;;59.20;36.53;;;;;;;22.15;64.11;93214.09;4840956;29;20797;-92
2022/08/26 10:28:36;;;;;;;62.08;37.70;;;;;;;22.16;64.00;93204.56;4840731;29;20189;-86
2022/08/26 10:31:19;;;;;;;60.45;36.45;;;;;;;22.15;63.92;93211.34;4840785;29;20646;-90
2022/08/26 10:33:45;;;;;;;75.32;36.17;;;;;;;22.18;63.99;93209.53;4824044;29;20132;-88
2022/08/26 10:36:47;;;;;;;91.63;39.80;;;;;;;22.21;63.96;93211.22;4820989;29;20048;-89
2022/08/26 10:38:59;;;;;;;84.03;37.63;;;;;;;22.21;63.69;93208.44;4815345;29;20052;-87
2022/08/26 10:41:24;;;;;;;58.45;31.80;;;;;;;22.19;63.85;93202.75;4826047;29;20421;-91
2022/08/26 10:43:55;;;;;;;56.28;31.20;;;;;;;22.20;64.08;93206.97;4807232;29;20129;-87
2022/08/26 10:46:22;;;;;;;;;;;;;;;22.16;64.03;93203.81;4806685;29;20041;-88
2022/08/26 10:49:00;;;;;;;59.22;33.70;;;;;;;22.17;63.96;93197.78;4824922;29;19968;-92
2022/08/26 10:51:35;;;;;;;55.15;31.13;;;;;;;22.18;63.80;93206.78;4842181;29;20106;-87
2022/08/26 10:54:10;;;;;;;51.00;29.45;;;;;;;22.17;63.95;93200.53;4818616;29;20034;-87
2022/08/26 10:56:42;;;;;;;55.80;29.30;;;;;;;22.19;63.79;93200.72;4796660;29;20628;-87
2022/08/26 10:59:29;;;;;;;47.88;29.60;;;;;;;22.17;64.25;93197.78;4814467;29;20046;-87
2022/08/26 11:01:59;;;;;;;49.03;27.08;;;;;;;22.20;63.94;93195.97;4822278;29;20050;-87
2022/08/26 11:04:52;;;;;;;40.28;25.95;;;;;;;22.19;64.01;93191.72;4788203;29;20130;-87
2022/08/26 11:07:39;;;;;;;40.58;25.08;;;;;;;22.20;63.81;93190.44;4831564;29;20502;-91
2022/08/26 11:10:17;;;;;;;33.97;22.50;;;;;;;22.26;63.58;93190.31;4815281;29;20180;-87
2022/08/26 11:12:46;;;;;;;36.35;23.27;;;;;;;22.28;63.61;93190.50;4819143;29;20043;-93
2022/08/26 11:15:13;;;;;;;33.72;21.17;;;;;;;22.25;63.50;93191.59;4792183;29;20507;-90
2022/08/26 11:17:45;;;;;;;37.58;22.15;;;;;;;22.25;63.63;93181.31;4822854;29;20038;-90
2022/08/26 11:20:22;;;;;;;32.95;21.65;;;;;;;22.23;63.61;93189.38;4824506;29;20514;-87
2022/08/26 11:22:52;;;;;;;36.00;22.40;;;;;;;22.24;63.87;93182.59;4819229;29;20157;-88
2022/08/26 11:25:19;;;;;;;24.33;19.70;;;;;;;22.26;63.64;93182.78;4820406;29;20037;-86
2022/08/26 11:27:45;;;;;;;26.67;18.38;;;;;;;22.27;63.50;93183.53;4802529;29;20526;-87
2022/08/26 11:30:14;;;;;;;28.73;19.13;;;;;;;22.26;63.60;93176.53;4832226;29;20051;-89
2022/08/26 11:32:39;;;;;;;23.58;17.95;;;;;;;22.28;63.68;93180.22;4833574;29;20061;-87
2022/08/26 11:35:34;;;;;;;26.10;17.55;;;;;;;22.22;63.64;93168.63;4823021;29;20554;-90
2022/08/26 11:38:02;;;;;;;27.38;18.98;;;;;;;22.25;63.40;93173.06;4834437;29;20038;-93